Flight Track Log - Related Links

Times and Time Zones

All times are in EST time to prevent confusion due to time zone crossing. See the N173DS flight status page for this flight to view local times or setup timezone preferences in your user account.

Time Position Orientation Groundspeed Altitude Reporting Facility
EST Latitude Longitude Course Direction KTS MPH feet Rate Location/Type
Wed 05:47:54 PM 27.9833 -82.5333 360° North 157 181 600  Level Tampa TRACON
Wed 05:48:24 PM 28.0167 -82.5333 360° North 199 229 1,400 1,467 Climbing Tampa TRACON
Wed 05:49:24 PM 28.0833 -82.5333 360° North 261 300 2,800 1,550 Climbing Tampa TRACON
Wed 05:50:24 PM 28.1500 -82.5667 336° Northwest 282 325 4,500 1,893 Climbing Tampa TRACON
Wed 05:52:12 PM 28.0594 -82.6839 229° Southwest 286 329 8,100 2,071 Climbing Miami Center
Wed 05:53:12 PM 27.9967 -82.7417 219° Southwest 292 336 10,300 2,200 Climbing Miami Center
Wed 05:54:12 PM 27.9272 -82.8039 218° Southwest 297 342 12,500 2,450 Climbing Miami Center
Wed 05:55:12 PM 27.8556 -82.8728 220° Southwest 322 371 15,200 2,700 Climbing Miami Center
Wed 05:56:12 PM 27.7794 -82.9439 220° Southwest 342 394 17,900 3,050 Climbing Miami Center
Wed 05:57:12 PM 27.7056 -83.0125 219° Southwest 347 399 21,300 3,000 Climbing Miami Center
Wed 05:58:12 PM 27.6722 -83.1139 250° West 455 524 23,900 2,450 Climbing Miami Center
Wed 05:59:12 PM 27.6881 -83.2272 279° West 397 457 26,200 2,100 Climbing Miami Center
Wed 06:00:12 PM 27.7372 -83.3378 297° West 389 448 28,100 1,650 Climbing Miami Center
Wed 06:01:12 PM 27.7822 -83.4506 294° West 394 453 29,500 1,350 Climbing Miami Center
Wed 06:02:12 PM 27.8331 -83.5708 296° West 405 466 30,800 1,650 Climbing Miami Center
Wed 06:03:12 PM 27.8778 -83.6836 294° West 405 466 32,800 1,551 Climbing Miami Center
Wed 06:05:37 PM 27.9869 -83.9572 294° West 398 458 36,100 1,405 Climbing Jacksonville Center
Wed 06:06:37 PM 28.0297 -84.0728 293° West 398 458 37,600 1,500 Climbing Jacksonville Center
Wed 06:07:37 PM 28.0767 -84.1864 295° West 398 458 39,100 1,200 Climbing Jacksonville Center
Wed 06:08:37 PM 28.1214 -84.2950 295° West 393 452 40,000 450 Climbing Jacksonville Center
Wed 06:09:37 PM 28.1558 -84.3992 291° West 393 452 40,000  Level Jacksonville Center
Wed 06:10:37 PM 28.1981 -84.5106 293° West 393 452 40,000  Level Jacksonville Center
Wed 06:11:37 PM 28.2406 -84.6267 293° West 393 452 40,000  Level Jacksonville Center
Wed 06:12:37 PM 28.2869 -84.7358 296° West 393 452 40,000  Level Jacksonville Center
Wed 06:13:37 PM 28.3292 -84.8497 293° West 393 452 40,000  Level Jacksonville Center
Wed 06:14:37 PM 28.3689 -84.9686 291° West 401 461 40,000  Level Jacksonville Center
Wed 06:15:37 PM 28.4172 -85.0758 297° West 396 456 40,000  Level Jacksonville Center
Wed 06:16:37 PM 28.4592 -85.1922 292° West 396 456 40,000  Level Jacksonville Center
Wed 06:17:37 PM 28.5008 -85.3089 292° West 396 456 40,000  Level Jacksonville Center
Wed 06:18:37 PM 28.5425 -85.4186 293° West 396 456 40,000  Level Jacksonville Center
Wed 06:19:37 PM 28.5861 -85.5333 293° West 396 456 40,000  Level Jacksonville Center
Wed 06:20:37 PM 28.6294 -85.6503 293° West 396 456 40,000  Level Jacksonville Center
Wed 06:21:37 PM 28.6728 -85.7675 293° West 402 463 40,000  Level Jacksonville Center
Wed 06:22:37 PM 28.7183 -85.8800 295° West 396 456 40,000  Level Jacksonville Center
Wed 06:23:37 PM 28.7592 -85.9972 292° West 396 456 40,000  Level Jacksonville Center
Wed 06:24:37 PM 28.8025 -86.1075 294° West 396 456 40,000  Level Jacksonville Center
Wed 06:25:37 PM 28.8453 -86.2275 292° West 396 456 40,000  Level Jacksonville Center
Wed 06:26:37 PM 28.8903 -86.3428 294° West 396 456 40,000  Level Jacksonville Center
Wed 06:27:37 PM 28.9311 -86.4556 292° West 396 456 40,000  Level Jacksonville Center
Wed 06:28:37 PM 28.9717 -86.5686 292° West 396 456 40,000  Level Jacksonville Center
Wed 06:29:37 PM 29.0122 -86.6842 292° West 396 456 40,000  Level Jacksonville Center
Wed 06:30:37 PM 29.0544 -86.8022 292° West 396 456 40,000  Level Jacksonville Center
Wed 06:31:37 PM 29.0969 -86.9153 293° West 396 456 40,000  Level Jacksonville Center
Wed 06:32:37 PM 29.1369 -87.0311 292° West 396 456 40,000  Level Jacksonville Center
Wed 06:34:04 PM 29.1964 -87.1933 293° West 396 456 40,000  Level Houston Center
Wed 06:35:06 PM 29.2386 -87.3092 293° West 394 453 40,000  Level Houston Center
Wed 06:36:07 PM 29.2881 -87.4486 292° West 395 455 40,000  Level Houston Center
Wed 06:37:09 PM 29.3306 -87.5661 293° West 399 459 40,000  Level Houston Center
Wed 06:38:10 PM 29.3683 -87.6767 291° West 397 457 40,000  Level Houston Center
Wed 06:39:12 PM 29.4103 -87.7950 292° West 400 460 40,000  Level Houston Center
Wed 06:40:13 PM 29.4508 -87.9119 292° West 397 457 40,000  Level Houston Center
Wed 06:41:15 PM 29.4908 -88.0294 291° West 396 456 40,000  Level Houston Center
Wed 06:42:16 PM 29.5403 -88.1686 292° West 394 453 40,000  Level Houston Center
Wed 06:43:18 PM 29.5814 -88.2867 292° West 398 458 40,000  Level Houston Center
Wed 06:44:19 PM 29.6211 -88.4011 292° West 397 457 40,000  Level Houston Center
Wed 06:45:21 PM 29.6625 -88.5189 292° West 397 457 40,000 -195 Level Houston Center
Wed 06:46:22 PM 29.7022 -88.6358 291° West 397 457 39,600 -878 Descending Houston Center
Wed 06:47:24 PM 29.7419 -88.7550 291° West 399 459 38,200 -1,415 Descending Houston Center
Wed 06:48:25 PM 29.7847 -88.8783 292° West 412 474 36,700 -1,805 Descending Houston Center
Wed 06:49:27 PM 29.8342 -89.0253 291° West 410 472 34,500 -1,951 Descending Houston Center
Wed 06:50:28 PM 29.8744 -89.1450 291° West 404 465 32,700 -1,756 Descending Houston Center
Wed 06:51:30 PM 29.9161 -89.2672 291° West 409 471 30,900 -1,756 Descending Houston Center
Wed 06:52:31 PM 29.9586 -89.3931 291° West 418 481 29,100 -1,756 Descending Houston Center
Wed 06:53:33 PM 29.9994 -89.5178 291° West 417 480 27,300 -1,756 Descending Houston Center
Wed 06:54:34 PM 30.0417 -89.6444 291° West 422 486 25,500 -1,854 Descending Houston Center
Wed 06:55:36 PM 30.0831 -89.7656 292° West 406 467 23,500 -1,951 Descending Houston Center
Wed 06:56:37 PM 30.1203 -89.8814 290° West 384 442 21,500 -2,000 Descending Houston Center
Wed 06:57:39 PM 30.1567 -89.9919 291° West 368 423 19,400 -1,974 Descending Houston Center
Wed 06:57:53 PM 30.1697 -90.0297 292° West 362 417 19,000 -769 Descending Houston Center
Wed 06:58:18 PM 30.1858 -90.0794 291° West 359 413 18,900 -383 Descending Houston Center
Wed 06:58:40 PM 30.1931 -90.0997 292° West 361 415 18,700 -1,091 Descending Houston Center
Wed 06:59:24 PM 30.2228 -90.1886 291° West 338 389 17,700 -1,065 Descending Houston Center
Wed 06:59:42 PM 30.2269 -90.2014 291° West 341 392 17,600 -1,377 Descending Houston Center
Wed 07:00:25 PM 30.2508 -90.2886 288° West 325 374 16,300 -1,742 Descending Houston Center
Wed 07:00:44 PM 30.2589 -90.3225 285° West 330 380 15,800 -1,522 Descending Houston Center
Wed 07:01:32 PM 30.2628 -90.4083 273° West 321 369 14,600 -1,475 Descending Houston Center
Wed 07:01:45 PM 30.2656 -90.4267 280° West 323 372 14,300 -1,900 Descending Houston Center
Wed 07:02:32 PM 30.2700 -90.5117 273° West 322 371 12,700 -1,935 Descending Houston Center
Wed 07:02:47 PM 30.2703 -90.5297 271° West 321 369 12,300 -2,182 Descending Houston Center
Wed 07:03:27 PM 30.2706 -90.6056 270° West 320 368 10,700 -2,164 Descending Houston Center
Wed 07:03:48 PM 30.2761 -90.6317 284° West 318 366 10,100 -1,880 Descending Houston Center
Wed 07:04:50 PM 30.3217 -90.7156 302° West 309 356 8,100 -1,024 Descending Houston Center
Wed 07:05:51 PM 30.3783 -90.7781 316° Northwest 288 331 8,000 -293 Descending Houston Center
Wed 07:06:53 PM 30.4350 -90.8358 319° Northwest 274 315 7,500 -1,024 Descending Houston Center
Wed 07:07:54 PM 30.4928 -90.8989 317° Northwest 278 320 5,900 -1,902 Descending Houston Center
Wed 07:08:56 PM 30.5603 -90.9764 315° West 283 326 3,600 -1,512 Descending Houston Center
Wed 07:09:57 PM 30.6111 -91.0367 314° West 283 326 2,800 -787 Descending Houston Center
Wed 07:11:00 PM 30.5471 -91.1293 283° West  Level Estimated
Wed 07:18:00 PM 30.5329 -91.1499 283° West  Level Estimated
Wed 07:19:00 PM 30.5329 -91.1499 283° West  Level Estimated
Wed 07:20:00 PM 30.5329 -91.1499 283° West  Level Estimated
Wed 07:21:00 PM 30.5329 -91.1499 283° West  Level Estimated
Wed 07:22:00 PM 30.5329 -91.1499 283° West  Level Estimated
Wed 07:23:00 PM 30.5329 -91.1499 283° West  Level Estimated
Wed 07:24:00 PM 30.5329 -91.1499 283° West  Level Estimated
Wed 07:25:00 PM 30.5329 -91.1499 283° West  Level Estimated

Login

Don't have an account? Register now (free) for customized features, flight alerts, and more!